Time;durP1;ratioP1;P1;durP2;ratioP2;P2;SDS_P1;SDS_P2;PMS_P1;PMS_P2;Temp;Humidity;BMP_temperature;BMP_pressure;BME280_temperature;BME280_humidity;BME280_pressure;Samples;Min_cycle;Max_cycle;Signal;HPM_P1;HPM_P2
2022/06/08 00:00:32;;;;;;;3.70;2.00;;;15.30;99.90;;;;;;5033608;28;20213;-42
2022/06/08 00:03:05;;;;;;;1.80;1.70;;;15.30;99.90;;;;;;5033769;28;20257;-42
2022/06/08 00:05:31;;;;;;;3.50;2.03;;;15.30;99.90;;;;;;5033693;28;20198;-41
2022/06/08 00:07:56;;;;;;;4.10;1.70;;;15.40;99.90;;;;;;5033754;28;20177;-42
2022/06/08 00:10:23;;;;;;;2.20;1.80;;;15.40;99.90;;;;;;5051216;28;20182;-42
2022/06/08 00:12:49;;;;;;;2.30;1.70;;;15.50;99.90;;;;;;5051372;28;20245;-42
2022/06/08 00:15:15;;;;;;;1.80;1.70;;;15.50;99.90;;;;;;5033508;28;20242;-40
2022/06/08 00:17:41;;;;;;;4.03;1.60;;;15.50;99.90;;;;;;5051740;28;20639;-42
2022/06/08 00:20:09;;;;;;;1.90;1.80;;;15.50;99.90;;;;;;5033431;28;20297;-42
2022/06/08 00:22:35;;;;;;;2.70;1.70;;;15.50;99.90;;;;;;5017337;28;20223;-42
2022/06/08 00:25:02;;;;;;;2.27;1.47;;;15.40;99.90;;;;;;5032703;28;20232;-42
2022/06/08 00:27:28;;;;;;;2.67;1.63;;;15.40;99.90;;;;;;5033256;28;20201;-42
2022/06/08 00:29:54;;;;;;;2.97;1.90;;;15.30;99.90;;;;;;5016584;28;20186;-42
2022/06/08 00:32:20;;;;;;;2.60;1.80;;;15.10;99.90;;;;;;5033349;28;20236;-42
2022/06/08 00:34:46;;;;;;;2.37;1.80;;;15.00;99.90;;;;;;5032998;28;20202;-42
2022/06/08 00:37:12;;;;;;;3.47;1.93;;;15.00;99.90;;;;;;5033132;28;20228;-39
2022/06/08 00:39:38;;;;;;;4.50;1.80;;;14.90;99.90;;;;;;5050609;28;20201;-42
2022/06/08 00:42:07;;;;;;;2.63;2.00;;;14.90;99.90;;;;;;5033063;28;20178;-42
2022/06/08 00:44:39;;;;;;;2.23;1.60;;;14.90;99.90;;;;;;5016292;28;20285;-42
2022/06/08 00:47:07;;;;;;;3.93;1.80;;;14.90;99.90;;;;;;5016704;28;20639;-42
2022/06/08 00:50:06;;;;;;;5.63;2.30;;;14.90;99.90;;;;;;5016545;28;20189;-41
2022/06/08 00:52:36;;;;;;;3.20;2.00;;;14.80;99.90;;;;;;4947204;28;20192;-42
2022/06/08 00:55:09;;;;;;;4.30;2.03;;;14.90;99.90;;;;;;5032676;28;20213;-42
2022/06/08 00:57:48;;;;;;;2.23;1.90;;;14.90;99.90;;;;;;5016614;28;20174;-42
2022/06/08 01:00:18;;;;;;;2.53;2.00;;;14.90;99.90;;;;;;5032758;28;20202;-42
2022/06/08 01:02:44;;;;;;;3.50;2.00;;;14.90;99.90;;;;;;5032777;28;20264;-42
2022/06/08 01:05:23;;;;;;;3.03;1.70;;;14.80;99.90;;;;;;5032384;28;20206;-42
2022/06/08 01:07:54;;;;;;;2.17;1.63;;;14.80;99.90;;;;;;5032914;28;20249;-42
2022/06/08 01:10:31;;;;;;;2.43;1.80;;;14.80;99.90;;;;;;5032908;28;20189;-42
2022/06/08 01:13:04;;;;;;;4.53;2.10;;;14.80;99.90;;;;;;5016363;28;20182;-42
2022/06/08 01:15:32;;;;;;;4.27;2.07;;;14.80;99.90;;;;;;5032436;28;20211;-41
2022/06/08 01:17:59;;;;;;;3.03;1.67;;;14.80;99.90;;;;;;5032463;28;20177;-41
2022/06/08 01:20:25;;;;;;;2.33;2.03;;;14.70;99.90;;;;;;5016223;28;20300;-42
2022/06/08 01:22:52;;;;;;;3.90;1.87;;;14.70;99.90;;;;;;5033136;28;20184;-42
2022/06/08 01:25:18;;;;;;;3.37;1.90;;;14.60;99.90;;;;;;5014050;28;20222;-42
2022/06/08 01:27:54;;;;;;;2.17;1.97;;;14.50;99.90;;;;;;5016981;28;20186;-42
2022/06/08 01:30:25;;;;;;;3.40;2.30;;;14.40;99.90;;;;;;5000138;28;20181;-41
2022/06/08 01:33:12;;;;;;;2.13;1.90;;;14.30;99.90;;;;;;5016784;28;20186;-42
2022/06/08 01:36:26;;;;;;;4.30;1.97;;;14.20;99.90;;;;;;4999971;28;20748;-41
2022/06/08 01:39:04;;;;;;;2.03;1.93;;;14.20;99.90;;;;;;4983325;28;20260;-39
2022/06/08 01:41:33;;;;;;;2.00;1.80;;;14.10;99.90;;;;;;5016722;28;20265;-42
2022/06/08 01:44:20;;;;;;;2.43;1.87;;;14.10;99.90;;;;;;5000159;28;20196;-42
2022/06/08 01:47:06;;;;;;;2.13;1.93;;;14.00;99.90;;;;;;5000229;28;20189;-42
2022/06/08 01:49:54;;;;;;;2.30;2.10;;;14.00;99.90;;;;;;4999820;28;20190;-41
2022/06/08 01:52:19;;;;;;;3.27;2.00;;;14.00;99.90;;;;;;5016372;28;20194;-41
2022/06/08 01:55:28;;;;;;;1.83;1.73;;;14.00;99.90;;;;;;5021413;28;20252;-41
2022/06/08 01:58:12;;;;;;;2.53;2.00;;;14.00;99.90;;;;;;5019831;28;20185;-41
2022/06/08 02:00:44;;;;;;;2.17;1.97;;;14.00;99.90;;;;;;5019561;28;20209;-39
2022/06/08 02:03:43;;;;;;;2.50;1.97;;;14.00;99.90;;;;;;5036188;28;20185;-42
2022/06/08 02:06:35;;;;;;;4.30;2.10;;;14.00;99.90;;;;;;5035822;28;20190;-42
2022/06/08 02:09:28;;;;;;;1.97;1.87;;;14.00;99.90;;;;;;5035718;28;20205;-41
2022/06/08 02:12:03;;;;;;;2.10;1.87;;;14.00;99.90;;;;;;5035922;28;20182;-39
2022/06/08 02:14:58;;;;;;;3.40;1.83;;;14.10;99.90;;;;;;5020096;28;20206;-42
2022/06/08 02:18:07;;;;;;;4.60;1.80;;;14.00;99.90;;;;;;5035600;28;20186;-42
2022/06/08 02:20:57;;;;;;;2.20;1.50;;;14.00;99.90;;;;;;4972282;28;20209;-39
2022/06/08 02:23:35;;;;;;;2.73;1.90;;;13.90;99.90;;;;;;5035765;28;20202;-42
2022/06/08 02:26:11;;;;;;;3.60;1.63;;;13.80;99.90;;;;;;5035348;28;20300;-41
2022/06/08 02:28:58;;;;;;;5.97;2.00;;;13.80;99.90;;;;;;5019007;28;20185;-42
2022/06/08 02:31:27;;;;;;;2.27;1.80;;;13.80;99.90;;;;;;5035674;28;20192;-39
2022/06/08 02:37:17;;;;;;;2.47;2.07;;;13.80;99.90;;;;;;5035398;28;20178;-41
2022/06/08 02:39:52;;;;;;;3.03;1.90;;;13.90;99.90;;;;;;5035386;28;20213;-41
2022/06/08 02:42:25;;;;;;;3.77;2.00;;;13.90;99.90;;;;;;5035289;28;20181;-41
2022/06/08 02:44:55;;;;;;;3.00;1.77;;;13.80;99.90;;;;;;5034845;28;20291;-42
2022/06/08 02:47:30;;;;;;;3.80;1.80;;;13.80;99.90;;;;;;5035296;28;20194;-42
2022/06/08 02:50:09;;;;;;;4.37;1.90;;;13.80;99.90;;;;;;5019563;28;20189;-42
2022/06/08 02:52:39;;;;;;;3.17;1.87;;;13.70;99.90;;;;;;5018641;28;20257;-40
2022/06/08 02:55:21;;;;;;;2.73;1.70;;;13.60;99.90;;;;;;5034762;28;20215;-41
2022/06/08 02:57:53;;;;;;;5.93;2.00;;;13.60;99.90;;;;;;5035184;28;20251;-41
2022/06/08 03:00:28;;;;;;;3.83;1.80;;;13.70;99.90;;;;;;5018477;28;20206;-42
2022/06/08 03:03:01;;;;;;;2.57;1.77;;;13.70;99.90;;;;;;5035094;28;20174;-41
2022/06/08 03:05:39;;;;;;;2.30;2.03;;;13.70;99.90;;;;;;5034403;28;20201;-42
2022/06/08 03:08:20;;;;;;;2.23;1.50;;;13.70;99.90;;;;;;5035077;28;20180;-41
2022/06/08 03:10:48;;;;;;;3.03;1.80;;;13.80;99.90;;;;;;5018413;28;20270;-42
2022/06/08 03:13:20;;;;;;;3.10;2.00;;;13.70;99.90;;;;;;5018305;28;20189;-42
2022/06/08 03:15:56;;;;;;;3.90;1.70;;;13.70;99.90;;;;;;5034111;28;20208;-41
2022/06/08 03:18:23;;;;;;;4.20;2.47;;;13.70;99.90;;;;;;5034508;28;20182;-41
2022/06/08 03:20:51;;;;;;;5.27;1.83;;;13.70;99.90;;;;;;5034420;28;20312;-41
2022/06/08 03:23:21;;;;;;;2.33;2.07;;;13.60;99.90;;;;;;5018681;28;20181;-42
2022/06/08 03:25:47;;;;;;;4.43;2.13;;;13.60;99.90;;;;;;5052695;28;20209;-36
2022/06/08 03:28:15;;;;;;;5.07;2.10;;;13.60;99.90;;;;;;5018107;28;20209;-38
2022/06/08 03:30:43;;;;;;;3.57;1.93;;;13.70;99.90;;;;;;5017941;28;20181;-38
2022/06/08 03:33:10;;;;;;;3.00;2.17;;;13.60;99.90;;;;;;5001895;28;20177;-40
2022/06/08 03:35:38;;;;;;;3.00;1.80;;;13.70;99.90;;;;;;5017749;28;20201;-38
2022/06/08 03:38:07;;;;;;;3.70;2.13;;;13.60;99.90;;;;;;5034386;28;20212;-37
2022/06/08 03:40:35;;;;;;;4.00;2.10;;;13.60;99.90;;;;;;5034130;28;20232;-38
2022/06/08 03:43:00;;;;;;;2.13;1.70;;;13.50;99.90;;;;;;5034043;28;20240;-37
2022/06/08 03:45:31;;;;;;;1.80;1.70;;;13.50;99.90;;;;;;5017343;28;20201;-36
2022/06/08 03:47:57;;;;;;;1.83;1.73;;;13.50;99.90;;;;;;5033865;28;20199;-36
2022/06/08 03:50:29;;;;;;;2.60;2.10;;;13.50;99.90;;;;;;5034248;28;20649;-36
2022/06/08 03:53:18;;;;;;;1.90;1.80;;;13.50;99.90;;;;;;5017687;28;20392;-35
2022/06/08 03:55:47;;;;;;;3.27;1.83;;;13.50;99.90;;;;;;5051589;28;20224;-38
2022/06/08 03:58:14;;;;;;;3.27;1.87;;;13.50;99.90;;;;;;5052007;28;20209;-36
2022/06/08 04:00:41;;;;;;;3.70;1.90;;;13.40;99.90;;;;;;5033724;28;20221;-39
2022/06/08 04:03:13;;;;;;;2.43;2.00;;;13.40;99.90;;;;;;5033933;28;20182;-37
2022/06/08 04:05:39;;;;;;;4.40;2.20;;;13.50;99.90;;;;;;5016875;28;20197;-39
2022/06/08 04:08:11;;;;;;;5.03;1.97;;;13.50;99.90;;;;;;5033696;28;20177;-40
2022/06/08 04:10:45;;;;;;;3.57;1.97;;;13.50;99.90;;;;;;5018281;28;20189;-37
2022/06/08 04:13:11;;;;;;;4.93;2.27;;;13.40;99.90;;;;;;5033653;28;20184;-36
2022/06/08 04:15:44;;;;;;;2.57;2.00;;;13.50;99.90;;;;;;5033274;28;20682;-38
2022/06/08 04:18:39;;;;;;;5.17;2.17;;;13.40;99.90;;;;;;5037294;28;20236;-39
2022/06/08 04:21:08;;;;;;;5.63;2.37;;;13.40;99.90;;;;;;5017253;28;20211;-37
2022/06/08 04:23:55;;;;;;;3.13;2.40;;;13.30;99.90;;;;;;5035699;28;20181;-35
2022/06/08 04:26:24;;;;;;;5.37;2.43;;;13.20;99.90;;;;;;5033106;28;20225;-40
2022/06/08 04:28:56;;;;;;;3.40;2.47;;;13.10;99.90;;;;;;5033433;28;20189;-39
2022/06/08 04:31:22;;;;;;;6.23;2.63;;;13.10;99.90;;;;;;5016915;28;20304;-35
2022/06/08 04:33:53;;;;;;;4.43;2.23;;;13.20;99.90;;;;;;5032984;28;20177;-38
2022/06/08 04:36:26;;;;;;;2.63;2.20;;;13.20;99.90;;;;;;5033549;28;20177;-34
2022/06/08 04:38:52;;;;;;;2.43;2.23;;;13.40;99.90;;;;;;5016948;28;20181;-38
2022/06/08 04:41:19;;;;;;;2.63;2.17;;;13.50;99.90;;;;;;5016434;28;20234;-37
2022/06/08 04:43:47;;;;;;;6.03;2.30;;;13.60;99.90;;;;;;5032959;28;20288;-40
2022/06/08 04:46:16;;;;;;;2.47;1.60;;;13.70;99.90;;;;;;5016824;28;20200;-38
2022/06/08 04:48:45;;;;;;;3.30;1.90;;;13.70;99.90;;;;;;5033313;28;20174;-37
2022/06/08 04:51:13;;;;;;;5.67;2.20;;;13.80;99.90;;;;;;5033245;28;20182;-38
2022/06/08 04:53:42;;;;;;;2.37;1.80;;;13.90;99.90;;;;;;5016308;28;20177;-36
2022/06/08 04:56:10;;;;;;;4.70;1.90;;;14.00;99.90;;;;;;5032830;28;20604;-36
2022/06/08 04:58:38;;;;;;;2.43;2.13;;;14.00;99.90;;;;;;5032659;28;20174;-36
2022/06/08 05:01:04;;;;;;;4.03;2.13;;;14.00;99.90;;;;;;5050128;28;20231;-37
2022/06/08 05:03:30;;;;;;;5.27;2.47;;;13.90;99.90;;;;;;5032919;28;20189;-39
2022/06/08 05:05:59;;;;;;;5.40;2.30;;;13.90;99.90;;;;;;5016382;28;20190;-38
2022/06/08 05:08:29;;;;;;;4.63;2.97;;;13.90;99.90;;;;;;5032735;28;20724;-38
2022/06/08 05:10:57;;;;;;;7.23;3.23;;;13.90;99.90;;;;;;5032768;28;20220;-39
2022/06/08 05:13:25;;;;;;;8.03;3.50;;;14.00;99.90;;;;;;5016759;28;20174;-37
2022/06/08 05:16:01;;;;;;;4.53;2.30;;;14.10;99.90;;;;;;5032536;28;20212;-40
2022/06/08 05:18:27;;;;;;;6.40;2.70;;;14.10;99.90;;;;;;5032902;28;20181;-37
2022/06/08 05:20:57;;;;;;;4.53;2.40;;;14.10;99.90;;;;;;5016781;28;20210;-36
2022/06/08 05:23:30;;;;;;;6.23;2.60;;;14.20;99.90;;;;;;5032927;28;20178;-39
2022/06/08 05:25:59;;;;;;;3.53;2.20;;;14.20;99.90;;;;;;5032643;28;20225;-37
2022/06/08 05:28:25;;;;;;;5.10;2.60;;;14.20;99.90;;;;;;5016387;28;20173;-38
2022/06/08 05:30:56;;;;;;;3.60;2.50;;;14.30;99.90;;;;;;5016729;28;20181;-38
2022/06/08 05:33:26;;;;;;;3.70;2.27;;;14.30;99.90;;;;;;5016018;28;20185;-36
2022/06/08 05:35:55;;;;;;;3.57;2.40;;;14.30;99.90;;;;;;5032237;28;20212;-37
2022/06/08 05:38:22;;;;;;;3.43;2.33;;;14.30;99.90;;;;;;5016134;28;20185;-40
2022/06/08 05:40:48;;;;;;;3.97;2.50;;;14.40;99.90;;;;;;5032365;28;20269;-36
2022/06/08 05:43:16;;;;;;;3.77;2.30;;;14.40;99.90;;;;;;5015982;28;20764;-40
2022/06/08 05:45:48;;;;;;;5.50;2.43;;;14.40;99.90;;;;;;5031911;28;20194;-39
2022/06/08 05:48:15;;;;;;;4.07;2.30;;;14.50;99.90;;;;;;5032393;28;20201;-41
2022/06/08 05:50:43;;;;;;;3.77;2.30;;;14.50;99.90;;;;;;5032502;28;20273;-36
2022/06/08 05:53:13;;;;;;;4.23;2.00;;;14.50;99.90;;;;;;5016528;28;20657;-39
2022/06/08 05:55:40;;;;;;;5.17;2.30;;;14.50;99.90;;;;;;5015636;28;20214;-38
2022/06/08 05:58:06;;;;;;;6.20;2.20;;;14.40;99.90;;;;;;5032225;28;20182;-41
2022/06/08 06:00:36;;;;;;;2.77;2.27;;;14.40;99.90;;;;;;5032309;28;20213;-39
2022/06/08 06:03:03;;;;;;;4.90;2.00;;;14.40;99.90;;;;;;5032003;28;20178;-40
2022/06/08 06:05:32;;;;;;;4.73;2.00;;;14.40;99.90;;;;;;5015479;28;20205;-36
2022/06/08 06:08:04;;;;;;;6.20;2.67;;;14.40;99.90;;;;;;5016547;28;20543;-40
2022/06/08 06:10:35;;;;;;;3.77;2.37;;;14.50;99.90;;;;;;5032483;28;20312;-39
2022/06/08 06:13:03;;;;;;;3.27;2.23;;;14.40;99.90;;;;;;5019669;28;20189;-38
2022/06/08 06:15:40;;;;;;;3.37;2.30;;;14.50;99.90;;;;;;5035816;28;20206;-38
2022/06/08 06:18:06;;;;;;;4.23;2.50;;;14.40;99.90;;;;;;5019499;28;20189;-37
2022/06/08 06:20:34;;;;;;;3.77;2.33;;;14.50;99.90;;;;;;5019200;28;20206;-37
2022/06/08 06:23:16;;;;;;;4.60;2.30;;;14.50;99.90;;;;;;5035615;28;20177;-38
2022/06/08 06:25:55;;;;;;;4.60;2.10;;;14.40;99.90;;;;;;5020386;28;20222;-40
2022/06/08 06:28:33;;;;;;;5.83;2.80;;;14.40;99.90;;;;;;5020969;28;20174;-38
2022/06/08 06:31:47;;;;;;;5.77;2.33;;;14.40;99.90;;;;;;5050263;28;20228;-38
2022/06/08 06:34:19;;;;;;;3.90;2.27;;;14.40;99.90;;;;;;5019222;28;20202;-39
2022/06/08 06:36:49;;;;;;;3.77;2.43;;;14.40;99.90;;;;;;5019522;28;20186;-36
2022/06/08 06:39:15;;;;;;;3.67;2.47;;;14.50;99.90;;;;;;5018649;28;20206;-37
2022/06/08 06:41:44;;;;;;;7.07;2.40;;;14.60;99.90;;;;;;5019264;28;20182;-40
2022/06/08 06:44:12;;;;;;;4.07;1.87;;;14.60;99.90;;;;;;5034654;28;20319;-38
2022/06/08 06:47:00;;;;;;;2.87;1.90;;;14.70;99.90;;;;;;5035402;28;20178;-40
2022/06/08 06:49:41;;;;;;;3.20;2.03;;;14.70;99.90;;;;;;5020936;28;20213;-39
2022/06/08 06:52:10;;;;;;;2.80;1.73;;;14.80;99.90;;;;;;5035062;28;20244;-39
2022/06/08 06:54:36;;;;;;;3.40;1.97;;;14.90;99.90;;;;;;5034488;28;20232;-38
2022/06/08 06:57:05;;;;;;;5.10;2.03;;;14.90;99.90;;;;;;5034825;28;20186;-39
2022/06/08 06:59:32;;;;;;;6.60;2.13;;;15.00;99.90;;;;;;5018510;28;20206;-37
2022/06/08 07:01:58;;;;;;;3.27;2.40;;;15.00;99.90;;;;;;5035089;28;20174;-37
2022/06/08 07:04:26;;;;;;;6.00;2.33;;;15.10;99.90;;;;;;5034698;28;20194;-38
2022/06/08 07:06:53;;;;;;;2.20;2.00;;;15.20;99.90;;;;;;5017943;28;20178;-37
2022/06/08 07:09:20;;;;;;;6.73;2.40;;;15.30;99.90;;;;;;5018511;28;20186;-39
2022/06/08 07:11:47;;;;;;;5.93;2.37;;;15.50;99.90;;;;;;5034611;28;20186;-37
2022/06/08 07:14:19;;;;;;;7.83;2.57;;;15.80;99.90;;;;;;5034445;28;20198;-39
2022/06/08 07:16:55;;;;;;;6.27;1.90;;;16.10;99.90;;;;;;5034746;28;20178;-36
2022/06/08 07:19:26;;;;;;;6.67;1.93;;;16.20;99.90;;;;;;5018740;28;20216;-40
2022/06/08 07:21:52;;;;;;;5.47;2.20;;;16.20;99.90;;;;;;5017681;28;20178;-40
2022/06/08 07:24:24;;;;;;;3.73;2.00;;;16.40;99.90;;;;;;5051405;28;20194;-41
2022/06/08 07:26:50;;;;;;;3.10;1.80;;;16.50;99.90;;;;;;5034570;28;20220;-40
2022/06/08 07:29:16;;;;;;;4.63;2.13;;;16.70;99.90;;;;;;5034610;28;20170;-38
2022/06/08 07:31:42;;;;;;;4.63;1.77;;;16.80;99.90;;;;;;5034460;28;20182;-37
2022/06/08 07:34:11;;;;;;;5.07;2.13;;;17.00;99.90;;;;;;5017444;28;20201;-38
2022/06/08 07:36:36;;;;;;;4.20;1.90;;;17.20;99.90;;;;;;5034247;28;20178;-40
2022/06/08 07:39:03;;;;;;;3.25;1.90;;;17.50;99.90;;;;;;5033995;28;20178;-39
2022/06/08 07:41:29;;;;;;;7.18;2.53;;;17.80;99.90;;;;;;5034138;28;20269;-36
2022/06/08 07:43:55;;;;;;;6.70;2.38;;;18.10;99.90;;;;;;5033973;28;20261;-38
2022/06/08 07:46:21;;;;;;;4.53;1.92;;;18.20;99.90;;;;;;5052098;28;20174;-40
2022/06/08 07:51:32;;;;;;;4.93;2.00;;;18.50;99.90;;;;;;5034049;28;20177;-41
2022/06/08 07:54:00;;;;;;;4.10;2.13;;;18.50;99.90;;;;;;5017231;28;20180;-37
2022/06/08 07:56:26;;;;;;;3.97;2.20;;;18.80;99.90;;;;;;5033841;28;20748;-38
2022/06/08 07:58:52;;;;;;;4.30;1.90;;;19.00;99.90;;;;;;5051611;28;20170;-39
2022/06/08 08:01:18;;;;;;;6.90;2.17;;;19.20;99.90;;;;;;5033994;28;20201;-39
2022/06/08 08:03:44;;;;;;;6.03;2.40;;;19.40;99.90;;;;;;5017044;28;20174;-39
2022/06/08 08:06:10;;;;;;;2.85;1.80;;;19.50;99.90;;;;;;5033577;28;20201;-38
2022/06/08 08:08:38;;;;;;;4.15;1.98;;;19.80;99.90;;;;;;5033865;28;20174;-37
2022/06/08 08:11:06;;;;;;;4.53;1.90;;;19.80;99.90;;;;;;5033659;28;20185;-40
2022/06/08 08:13:32;;;;;;;3.92;2.08;;;19.90;99.90;;;;;;5033446;28;20249;-39
2022/06/08 08:15:59;;;;;;;3.33;1.95;;;20.10;99.90;;;;;;5016730;28;20237;-39
2022/06/08 08:18:25;;;;;;;5.05;2.10;;;20.20;99.90;;;;;;5051329;28;20190;-40
2022/06/08 08:20:51;;;;;;;5.38;1.90;;;20.30;99.90;;;;;;5016955;28;20209;-38
2022/06/08 08:23:17;;;;;;;6.82;1.98;;;20.30;99.90;;;;;;5033541;28;20178;-39
2022/06/08 08:25:42;;;;;;;6.25;1.63;;;20.20;99.90;;;;;;5033090;28;20209;-39
2022/06/08 08:28:09;;;;;;;6.45;1.77;;;20.40;99.90;;;;;;5051313;28;20174;-41
2022/06/08 08:30:35;;;;;;;5.40;2.00;;;20.70;99.90;;;;;;5016684;28;20182;-40
2022/06/08 08:33:02;;;;;;;2.92;1.70;;;20.80;99.90;;;;;;5033225;28;20192;-39
2022/06/08 08:35:28;;;;;;;4.25;1.88;;;20.80;99.90;;;;;;5016433;28;20207;-41
2022/06/08 08:37:55;;;;;;;4.00;1.60;;;20.70;99.90;;;;;;5033376;28;20185;-39
2022/06/08 08:40:48;;;;;;;3.08;1.52;;;20.60;99.90;;;;;;5033245;28;20705;-40
2022/06/08 08:43:20;;;;;;;3.15;1.80;;;20.40;99.90;;;;;;5033223;28;20704;-41
2022/06/08 08:46:08;;;;;;;2.75;1.35;;;20.40;99.90;;;;;;5032989;28;20248;-39
2022/06/08 08:48:45;;;;;;;2.78;1.50;;;20.40;99.90;;;;;;5016681;28;20268;-39
2022/06/08 08:51:20;;;;;;;6.82;2.15;;;20.70;99.90;;;;;;5050774;28;20182;-41
2022/06/08 08:54:05;;;;;;;3.17;1.52;;;21.00;99.90;;;;;;5033030;28;20184;-41
2022/06/08 08:56:36;;;;;;;2.50;1.55;;;21.30;99.90;;;;;;5033075;28;20216;-39
2022/06/08 08:59:04;;;;;;;2.92;1.95;;;21.60;99.90;;;;;;5050953;28;20173;-39
2022/06/08 09:01:35;;;;;;;2.80;1.55;;;21.80;99.90;;;;;;5032756;28;20185;-41
2022/06/08 09:04:31;;;;;;;5.72;1.67;;;21.90;99.90;;;;;;5016277;28;20177;-41
2022/06/08 09:07:03;;;;;;;1.85;1.60;;;22.20;99.90;;;;;;5016400;28;20181;-40
2022/06/08 09:09:34;;;;;;;4.03;1.60;;;22.50;99.90;;;;;;5032739;28;20189;-39
2022/06/08 09:12:03;;;;;;;4.00;1.50;;;22.60;99.90;;;;;;5016395;28;20196;-41
2022/06/08 09:14:51;;;;;;;1.58;1.40;;;22.70;99.90;;;;;;5032325;28;20201;-41
2022/06/08 09:17:40;;;;;;;2.45;1.30;;;22.90;99.90;;;;;;5032780;28;20177;-39
2022/06/08 09:20:30;;;;;;;2.58;1.35;;;23.00;99.90;;;;;;5050616;28;20208;-41
2022/06/08 09:23:01;;;;;;;4.18;1.50;;;23.20;99.90;;;;;;5050459;28;20627;-41
2022/06/08 09:28:02;;;;;;;2.83;1.17;;;23.00;99.90;;;;;;5067203;28;20346;-39
2022/06/08 09:30:31;;;;;;;9.68;1.42;;;23.10;99.90;;;;;;5052597;28;20230;-36
2022/06/08 09:33:01;;;;;;;2.50;1.20;;;22.90;99.90;;;;;;5052211;28;20206;-36
2022/06/08 09:35:36;;;;;;;2.58;1.10;;;23.10;99.90;;;;;;5052411;28;20197;-38
2022/06/08 09:38:09;;;;;;;2.05;1.20;;;23.10;99.90;;;;;;5036296;28;20181;-42
2022/06/08 09:41:04;;;;;;;3.45;1.20;;;23.20;99.90;;;;;;5035764;28;20213;-38
2022/06/08 09:44:04;;;;;;;2.65;1.17;;;23.20;99.90;;;;;;5060981;28;20191;-37
2022/06/08 09:52:49;;;;;;;2.10;1.27;;;23.40;99.90;;;;;;5056175;28;20181;-37
2022/06/08 09:55:47;;;;;;;3.50;1.10;;;23.50;99.90;;;;;;5039418;28;20219;-37
2022/06/08 09:58:37;;;;;;;2.17;0.93;;;23.50;99.90;;;;;;5039922;28;20181;-37
2022/06/08 10:01:54;;;;;;;1.83;0.90;;;23.10;99.90;;;;;;5056233;28;20204;-40
2022/06/08 10:04:41;;;;;;;2.03;1.02;;;23.00;99.90;;;;;;4995581;28;20194;-40
2022/06/08 10:07:16;;;;;;;1.60;1.08;;;22.70;99.90;;;;;;5039492;28;20173;-39
2022/06/08 10:09:58;;;;;;;5.38;1.10;;;22.60;99.90;;;;;;5039489;28;20181;-36
2022/06/08 10:12:46;;;;;;;2.00;0.90;;;22.60;99.90;;;;;;5039333;28;20197;-41
2022/06/08 10:15:39;;;;;;;2.45;0.90;;;22.60;99.90;;;;;;5038843;28;20208;-40
2022/06/08 10:18:24;;;;;;;5.90;1.00;;;22.60;99.90;;;;;;5056165;28;20188;-39
2022/06/08 10:20:55;;;;;;;1.92;0.80;;;22.80;99.90;;;;;;5038845;28;20244;-39
2022/06/08 10:23:39;;;;;;;1.58;0.80;;;22.70;99.90;;;;;;5055621;28;20173;-38
2022/06/08 10:26:22;;;;;;;2.33;0.80;;;22.90;99.10;;;;;;5038892;28;20216;-39
2022/06/08 10:28:49;;;;;;;2.85;0.90;;;23.10;99.90;;;;;;5039159;28;20259;-40
2022/06/08 10:31:21;;;;;;;1.90;1.08;;;23.30;99.90;;;;;;5055240;28;20223;-37
2022/06/08 10:34:03;;;;;;;4.80;1.02;;;23.50;99.90;;;;;;5038626;28;20185;-38
2022/06/08 10:36:31;;;;;;;3.55;1.10;;;23.60;98.80;;;;;;5055563;28;20274;-40
2022/06/08 10:39:03;;;;;;;2.97;0.82;;;23.40;99.40;;;;;;5055350;28;20204;-38
2022/06/08 10:44:35;;;;;;;2.17;0.95;;;23.40;98.70;;;;;;5054947;28;20205;-36
2022/06/08 10:47:18;;;;;;;2.33;0.82;;;23.90;99.90;;;;;;5038729;28;20245;-36
2022/06/08 10:49:44;;;;;;;1.42;0.88;;;24.30;98.70;;;;;;5055288;28;20177;-36
2022/06/08 10:52:26;;;;;;;2.35;0.88;;;24.10;98.50;;;;;;5038347;28;20206;-36
2022/06/08 10:55:37;;;;;;;5.20;1.08;;;24.60;98.50;;;;;;5072681;28;20201;-36
2022/06/08 10:58:07;;;;;;;1.05;0.80;;;24.80;97.00;;;;;;4973826;28;20322;-36
2022/06/08 11:00:58;;;;;;;2.33;0.90;;;24.90;98.90;;;;;;5031907;28;20217;-36
2022/06/08 11:03:41;;;;;;;5.22;1.00;;;24.90;98.40;;;;;;5038550;28;20173;-37
2022/06/08 11:06:31;;;;;;;1.52;1.00;;;25.10;97.10;;;;;;5038283;28;20265;-37
2022/06/08 11:08:58;;;;;;;2.92;1.25;;;24.80;96.00;;;;;;5054398;28;20185;-35
2022/06/08 11:11:41;;;;;;;3.35;0.90;;;24.60;95.40;;;;;;5054985;28;20310;-41
2022/06/08 11:14:43;;;;;;;2.42;1.00;;;24.80;97.40;;;;;;5038190;28;20188;-40
2022/06/08 11:17:14;;;;;;;1.05;0.80;;;24.80;93.90;;;;;;5037886;28;20191;-36
2022/06/08 11:19:42;;;;;;;1.27;0.77;;;24.80;96.30;;;;;;5054668;28;20216;-38
2022/06/08 11:22:33;;;;;;;3.08;1.00;;;24.80;97.90;;;;;;5054701;28;20180;-36
2022/06/08 11:25:03;;;;;;;4.47;1.10;;;24.80;95.40;;;;;;5054315;28;20234;-40
2022/06/08 11:27:36;;;;;;;2.95;0.75;;;24.70;97.90;;;;;;5037872;28;20200;-39
2022/06/08 11:30:14;;;;;;;1.30;0.60;;;24.80;94.10;;;;;;5037743;28;20176;-40
2022/06/08 11:33:11;;;;;;;2.55;1.00;;;24.90;95.20;;;;;;5072433;28;20173;-37
2022/06/08 11:35:56;;;;;;;4.13;0.90;;;24.90;95.70;;;;;;5054060;28;20204;-38
2022/06/08 11:38:52;;;;;;;1.38;0.70;;;25.00;94.10;;;;;;5037907;28;20188;-37
2022/06/08 11:41:30;;;;;;;1.35;0.80;;;25.20;94.90;;;;;;5054274;28;20668;-37
2022/06/08 11:44:11;;;;;;;2.28;0.85;;;25.30;93.20;;;;;;5053948;28;20238;-40
2022/06/08 11:46:53;;;;;;;2.38;1.10;;;25.30;93.90;;;;;;5054171;28;20169;-39
2022/06/08 11:49:39;;;;;;;1.15;0.95;;;24.90;94.30;;;;;;5037667;28;20185;-40
2022/06/08 11:52:30;;;;;;;1.65;0.90;;;24.80;93.70;;;;;;5038056;28;20205;-38
2022/06/08 11:55:14;;;;;;;1.92;1.00;;;24.70;95.70;;;;;;5037054;28;20214;-38
2022/06/08 11:57:45;;;;;;;1.30;0.73;;;24.90;95.60;;;;;;5017584;28;20177;-37
2022/06/08 12:00:23;;;;;;;3.40;1.20;;;24.90;94.80;;;;;;5017427;28;20288;-40
2022/06/08 12:03:00;;;;;;;2.45;1.00;;;25.00;96.10;;;;;;5033784;28;20181;-39
2022/06/08 12:05:31;;;;;;;3.00;0.98;;;25.00;96.90;;;;;;5033658;28;20197;-38
2022/06/08 12:08:27;;;;;;;2.33;0.90;;;25.10;95.40;;;;;;5017439;28;20723;-38
2022/06/08 12:10:54;;;;;;;3.22;0.98;;;24.80;96.30;;;;;;5017486;28;20280;-37
2022/06/08 12:13:22;;;;;;;2.03;0.90;;;24.60;95.70;;;;;;5016899;28;20185;-39
2022/06/08 12:15:52;;;;;;;1.83;0.90;;;24.50;96.50;;;;;;5017033;28;20206;-38
2022/06/08 12:18:36;;;;;;;2.03;0.90;;;24.30;95.70;;;;;;5033877;28;20178;-37
2022/06/08 12:21:06;;;;;;;1.88;0.88;;;24.20;95.60;;;;;;5017251;28;20244;-37
2022/06/08 12:23:55;;;;;;;1.65;0.90;;;24.20;95.80;;;;;;5033698;28;20174;-39
2022/06/08 12:26:24;;;;;;;2.25;1.10;;;24.50;97.90;;;;;;5051450;28;20232;-36
2022/06/08 12:29:22;;;;;;;2.70;1.02;;;24.50;96.30;;;;;;5036788;28;20181;-37
2022/06/08 12:31:59;;;;;;;1.45;0.90;;;24.80;96.40;;;;;;5053369;28;20177;-41
2022/06/08 12:34:36;;;;;;;2.30;1.02;;;24.70;94.20;;;;;;5052825;28;20173;-36
2022/06/08 12:37:22;;;;;;;1.98;0.93;;;24.90;94.50;;;;;;5053394;28;20271;-38
2022/06/08 12:39:48;;;;;;;2.20;0.90;;;25.30;96.20;;;;;;5053089;28;20292;-41
2022/06/08 12:42:25;;;;;;;1.80;1.00;;;25.50;96.80;;;;;;5036375;28;20181;-39
2022/06/08 12:44:54;;;;;;;1.75;1.05;;;25.50;96.70;;;;;;5036382;28;20196;-37
2022/06/08 12:47:21;;;;;;;1.38;0.90;;;25.50;94.60;;;;;;5036861;28;20185;-38
2022/06/08 12:49:59;;;;;;;2.85;1.13;;;25.30;95.90;;;;;;5036353;28;20185;-40
2022/06/08 12:52:34;;;;;;;2.60;1.13;;;25.00;94.50;;;;;;5053198;28;20185;-39
2022/06/08 12:55:01;;;;;;;2.42;1.02;;;24.60;94.50;;;;;;5035714;28;20581;-37
2022/06/08 12:57:33;;;;;;;3.33;1.08;;;24.30;95.50;;;;;;5036228;28;20177;-36
2022/06/08 13:00:01;;;;;;;1.45;0.90;;;24.50;97.40;;;;;;5036123;28;20204;-42
2022/06/08 13:02:30;;;;;;;3.08;1.00;;;24.20;96.70;;;;;;5053022;28;20224;-36
2022/06/08 13:04:57;;;;;;;2.72;0.90;;;23.90;97.90;;;;;;5052750;28;20201;-37
2022/06/08 13:07:27;;;;;;;2.30;1.10;;;23.80;97.00;;;;;;5052756;28;20176;-41
2022/06/08 13:09:53;;;;;;;1.75;0.77;;;23.90;98.10;;;;;;5052649;28;20183;-39
2022/06/08 13:12:31;;;;;;;3.00;1.17;;;24.00;97.10;;;;;;5035996;28;20173;-39
2022/06/08 13:14:58;;;;;;;3.15;1.30;;;24.10;97.40;;;;;;5052449;28;20217;-38
2022/06/08 13:17:28;;;;;;;2.00;0.90;;;24.00;96.80;;;;;;5036561;28;20256;-36
2022/06/08 13:19:57;;;;;;;2.15;1.25;;;24.00;96.90;;;;;;5035785;28;20212;-39
2022/06/08 13:22:25;;;;;;;2.90;1.00;;;24.10;97.20;;;;;;5074264;28;20230;-36
2022/06/08 13:24:52;;;;;;;1.85;0.90;;;24.00;98.40;;;;;;5039700;28;20213;-37
2022/06/08 13:27:18;;;;;;;3.13;1.00;;;24.00;97.00;;;;;;5040129;28;20290;-36
2022/06/08 13:29:44;;;;;;;1.35;0.82;;;23.90;96.50;;;;;;5056819;28;20208;-36
2022/06/08 13:32:19;;;;;;;1.52;0.90;;;23.80;98.10;;;;;;5056806;28;20177;-37
2022/06/08 13:34:46;;;;;;;3.83;1.13;;;23.80;97.00;;;;;;5039744;28;20264;-36
2022/06/08 13:37:28;;;;;;;2.20;0.90;;;23.90;98.50;;;;;;5039811;28;20184;-39
2022/06/08 13:39:55;;;;;;;3.90;1.17;;;23.80;97.30;;;;;;5056669;28;20208;-36